createdAt,value
2018-11-29T00:04:32.118Z,2.60
2018-11-29T00:10:35.602Z,2.62
2018-11-29T00:16:39.030Z,3.00
2018-11-29T00:22:43.082Z,2.47
2018-11-29T00:28:46.547Z,2.80
2018-11-29T00:34:50.000Z,2.70
2018-11-29T00:40:53.516Z,3.30
2018-11-29T00:46:56.946Z,3.33
2018-11-29T00:53:00.371Z,2.85
2018-11-29T00:59:03.860Z,3.15
2018-11-29T01:05:07.368Z,2.92
2018-11-29T01:11:10.816Z,2.60
2018-11-29T01:17:14.276Z,2.37
2018-11-29T01:23:17.717Z,2.52
2018-11-29T01:29:21.181Z,2.80
2018-11-29T01:35:24.659Z,2.60
2018-11-29T01:41:28.126Z,2.67
2018-11-29T01:47:31.565Z,2.60
2018-11-29T01:53:35.042Z,3.22
2018-11-29T01:59:38.528Z,2.92
2018-11-29T02:05:41.962Z,2.83
2018-11-29T02:11:45.398Z,3.77
2018-11-29T02:17:48.874Z,2.72
2018-11-29T02:23:52.323Z,2.85
2018-11-29T02:29:55.874Z,2.22
2018-11-29T02:35:59.315Z,2.27
2018-11-29T02:42:02.758Z,2.65
2018-11-29T02:48:06.602Z,2.20
2018-11-29T02:54:10.062Z,2.95
2018-11-29T03:00:17.972Z,2.22
2018-11-29T03:06:21.433Z,3.22
2018-11-29T03:12:24.951Z,2.60
2018-11-29T03:18:28.386Z,2.77
2018-11-29T03:24:31.859Z,2.92
2018-11-29T03:30:35.348Z,2.85
2018-11-29T03:36:38.807Z,3.27
2018-11-29T03:42:42.359Z,3.10
2018-11-29T03:48:45.924Z,2.47
2018-11-29T03:54:50.151Z,2.62
2018-11-29T04:00:53.650Z,3.60
2018-11-29T04:06:57.711Z,3.65
2018-11-29T04:13:01.137Z,3.37
2018-11-29T04:19:05.359Z,2.52
2018-11-29T04:25:10.113Z,3.10
2018-11-29T04:31:13.567Z,2.95
2018-11-29T04:37:17.031Z,2.22
2018-11-29T04:43:20.474Z,2.60
2018-11-29T04:49:23.969Z,2.10
2018-11-29T04:55:28.062Z,2.20
2018-11-29T05:01:31.499Z,2.47
2018-11-29T05:07:35.018Z,2.70
2018-11-29T05:13:38.415Z,2.33
2018-11-29T05:19:41.893Z,2.10
2018-11-29T05:25:45.326Z,2.40
2018-11-29T05:31:48.784Z,3.15
2018-11-29T05:37:52.251Z,5.60
2018-11-29T05:43:55.720Z,5.05
2018-11-29T05:49:59.159Z,3.62
2018-11-29T05:56:02.630Z,3.58
2018-11-29T06:02:06.166Z,3.50
2018-11-29T06:08:09.601Z,2.90
2018-11-29T06:14:13.089Z,2.58
2018-11-29T06:20:17.557Z,2.30
2018-11-29T06:26:21.017Z,1.87
2018-11-29T06:32:24.471Z,2.10
2018-11-29T06:38:27.942Z,2.25
2018-11-29T06:44:31.403Z,3.02
2018-11-29T06:50:34.849Z,2.30
2018-11-29T06:56:38.343Z,2.35
2018-11-29T07:02:41.777Z,2.52
2018-11-29T07:08:45.535Z,2.65
2018-11-29T07:14:48.989Z,2.62
2018-11-29T07:21:03.581Z,2.55
2018-11-29T07:27:07.077Z,2.80
2018-11-29T07:33:10.533Z,2.17
2018-11-29T07:39:13.977Z,2.25
2018-11-29T07:45:18.429Z,2.85
2018-11-29T07:51:21.881Z,2.70
2018-11-29T07:57:25.310Z,2.98
2018-11-29T08:03:28.750Z,2.55
2018-11-29T08:09:32.165Z,2.60
2018-11-29T08:15:35.638Z,2.60
2018-11-29T08:21:39.104Z,2.75
2018-11-29T08:27:42.530Z,2.98
2018-11-29T08:33:45.982Z,3.77
2018-11-29T08:39:49.569Z,3.60
2018-11-29T08:45:53.091Z,3.30
2018-11-29T08:51:56.520Z,3.35
2018-11-29T08:57:59.977Z,3.50
2018-11-29T09:04:03.404Z,3.60
2018-11-29T09:10:09.008Z,4.25
2018-11-29T09:16:12.528Z,3.58
2018-11-29T09:22:15.892Z,3.37
2018-11-29T09:28:19.614Z,4.17
2018-11-29T09:34:23.100Z,3.27
2018-11-29T09:40:26.561Z,3.90
2018-11-29T09:46:30.022Z,3.00
2018-11-29T09:52:33.494Z,2.90
2018-11-29T09:58:36.894Z,3.17
2018-11-29T10:04:40.340Z,3.20
2018-11-29T10:10:43.796Z,3.42
2018-11-29T10:16:47.290Z,3.00
2018-11-29T10:22:50.757Z,3.58
2018-11-29T10:28:54.262Z,3.10
2018-11-29T10:34:57.683Z,3.40
2018-11-29T10:41:01.120Z,3.58
2018-11-29T10:47:04.615Z,3.58
2018-11-29T10:53:08.895Z,3.25
